Time;durP1;ratioP1;P1;durP2;ratioP2;P2;SDS_P1;SDS_P2;PMS_P1;PMS_P2;Temp;Humidity;BMP_temperature;BMP_pressure;BME280_temperature;BME280_humidity;BME280_pressure;Samples;Min_cycle;Max_cycle;Signal;HPM_P1;HPM_P2
2022/03/05 00:01:06;;;;;;;36.00;17.10;;;;;;;-0.15;87.50;98766.34;105734;1281;25282;-76
2022/03/05 00:03:33;;;;;;;36.40;16.40;;;;;;;-0.14;87.83;98767.48;105670;1279;150305;-77
2022/03/05 00:06:00;;;;;;;38.10;17.30;;;;;;;-0.14;87.67;98768.52;105665;1281;22570;-76
2022/03/05 00:08:41;;;;;;;38.70;19.00;;;;;;;-0.15;87.63;98765.27;105594;1281;137446;-76
2022/03/05 00:11:07;;;;;;;37.70;19.20;;;;;;;-0.14;87.48;98766.73;105681;1281;25348;-76
2022/03/05 00:13:36;;;;;;;34.90;17.30;;;;;;;-0.12;87.65;98767.25;105746;1281;24527;-76
2022/03/05 00:16:04;;;;;;;36.20;17.00;;;;;;;-0.10;87.69;98770.25;105547;1281;137888;-77
2022/03/05 00:18:31;;;;;;;37.20;17.00;;;;;;;-0.09;87.48;98768.54;105729;1281;24268;-76
2022/03/05 00:20:57;;;;;;;33.40;16.30;;;;;;;-0.09;87.55;98771.38;105854;1281;137565;-76
2022/03/05 00:23:24;;;;;;;34.20;16.00;;;;;;;-0.09;87.42;98769.94;105750;1281;26635;-76
2022/03/05 00:25:50;;;;;;;39.40;18.00;;;;;;;-0.11;87.66;98769.61;105737;1281;137845;-76
2022/03/05 00:28:17;;;;;;;37.00;17.60;;;;;;;-0.12;87.44;98766.17;105819;1281;22545;-76
2022/03/05 00:30:43;;;;;;;33.70;15.70;;;;;;;-0.10;87.39;98771.13;105690;1281;22640;-77
2022/03/05 00:33:09;;;;;;;39.90;16.90;;;;;;;-0.11;87.52;98768.70;105574;1281;137963;-77
2022/03/05 00:35:35;;;;;;;32.20;16.50;;;;;;;-0.11;87.68;98766.73;105653;1281;22710;-77
2022/03/05 00:38:03;;;;;;;35.00;16.00;;;;;;;-0.09;87.54;98770.55;105523;1282;137715;-77
2022/03/05 00:40:29;;;;;;;42.50;19.80;;;;;;;-0.09;87.51;98774.38;105668;1281;22611;-77
2022/03/05 00:42:55;;;;;;;40.00;19.00;;;;;;;-0.09;87.35;98774.94;105937;1280;22580;-77
2022/03/05 00:45:22;;;;;;;36.80;18.60;;;;;;;-0.08;87.44;98772.52;105712;1280;138273;-77
2022/03/05 00:47:49;;;;;;;41.40;19.60;;;;;;;-0.06;87.38;98768.54;105797;1280;22593;-77
2022/03/05 00:50:16;;;;;;;38.30;17.20;;;;;;;-0.05;87.36;98767.66;105678;1280;137699;-77
2022/03/05 00:52:42;;;;;;;41.00;18.70;;;;;;;-0.05;87.34;98770.04;105585;1281;22579;-77
2022/03/05 00:55:09;;;;;;;34.80;15.80;;;;;;;-0.06;87.20;98768.70;105641;1282;22725;-77
2022/03/05 00:57:35;;;;;;;39.80;18.60;;;;;;;-0.08;87.34;98768.54;105661;1281;137343;-77
2022/03/05 01:00:04;;;;;;;49.70;19.80;;;;;;;-0.10;87.33;98768.45;105743;1281;22547;-77
2022/03/05 01:02:31;;;;;;;40.60;20.00;;;;;;;-0.13;87.18;98765.94;105642;1281;137986;-77
2022/03/05 01:04:57;;;;;;;40.90;19.00;;;;;;;-0.13;87.41;98767.31;105737;1280;22548;-77
2022/03/05 01:07:23;;;;;;;37.80;17.90;;;;;;;-0.13;87.58;98766.81;105842;1280;22715;-77
2022/03/05 01:09:50;;;;;;;41.60;18.70;;;;;;;-0.14;87.35;98768.75;105755;1280;137521;-77
2022/03/05 01:12:18;;;;;;;46.10;20.20;;;;;;;-0.17;87.38;98767.77;105861;1281;25436;-77
2022/03/05 01:14:44;;;;;;;42.10;21.50;;;;;;;-0.17;87.48;98768.02;105558;1281;137817;-77
2022/03/05 01:17:10;;;;;;;46.60;22.00;;;;;;;-0.17;87.44;98767.85;105803;1281;22560;-77
2022/03/05 01:19:37;;;;;;;43.20;20.00;;;;;;;-0.17;87.85;98765.70;105806;1281;22865;-77
2022/03/05 01:22:04;;;;;;;46.60;21.70;;;;;;;-0.16;87.86;98761.80;105722;1279;137238;-77
2022/03/05 01:24:31;;;;;;;39.30;18.90;;;;;;;-0.14;87.71;98764.99;105768;1280;25279;-77
2022/03/05 01:26:58;;;;;;;41.10;19.40;;;;;;;-0.15;87.77;98763.84;105694;1280;137367;-77
2022/03/05 01:29:24;;;;;;;49.60;20.70;;;;;;;-0.15;87.73;98764.58;105763;1280;23322;-77
2022/03/05 01:31:50;;;;;;;41.90;19.30;;;;;;;-0.17;87.68;98763.73;105530;1281;138337;-77
2022/03/05 01:34:16;;;;;;;45.90;19.40;;;;;;;-0.17;87.57;98760.45;105647;1281;22683;-77
2022/03/05 01:36:42;;;;;;;41.60;19.70;;;;;;;-0.16;87.67;98759.66;105567;1281;22699;-77
2022/03/05 01:39:09;;;;;;;40.80;18.60;;;;;;;-0.15;87.68;98763.83;105567;1281;137454;-77
2022/03/05 01:41:37;;;;;;;39.20;19.40;;;;;;;-0.14;87.64;98764.46;105689;1281;22553;-77
2022/03/05 01:44:05;;;;;;;43.70;20.30;;;;;;;-0.14;87.51;98760.92;105680;1280;137582;-77
2022/03/05 01:46:37;;;;;;;44.70;21.00;;;;;;;-0.14;87.67;98759.67;105827;1280;23923;-77
2022/03/05 01:49:12;;;;;;;44.50;20.90;;;;;;;-0.14;87.66;98761.05;105878;1280;22755;-77
2022/03/05 01:51:39;;;;;;;39.80;20.20;;;;;;;-0.13;87.74;98756.54;105632;1280;138073;-77
2022/03/05 01:54:07;;;;;;;43.20;20.70;;;;;;;-0.14;87.91;98756.73;105696;1281;22576;-77
2022/03/05 01:56:35;;;;;;;41.20;19.50;;;;;;;-0.14;87.86;98755.16;105585;1281;137556;-77
2022/03/05 01:59:02;;;;;;;45.30;22.50;;;;;;;-0.16;87.88;98756.31;105727;1282;22573;-77
2022/03/05 02:01:29;;;;;;;47.70;21.30;;;;;;;-0.16;87.81;98757.88;106186;1280;22631;-77
2022/03/05 02:03:56;;;;;;;47.30;20.70;;;;;;;-0.15;87.61;98756.54;105842;1280;138134;-77
2022/03/05 02:06:23;;;;;;;43.80;19.70;;;;;;;-0.15;87.67;98754.90;105803;1280;22737;-77
2022/03/05 02:08:50;;;;;;;42.30;20.90;;;;;;;-0.16;87.64;98755.25;105677;1280;137638;-77
2022/03/05 02:11:16;;;;;;;37.70;16.70;;;;;;;-0.16;87.71;98756.64;105605;1281;25354;-75
2022/03/05 02:13:44;;;;;;;49.20;22.10;;;;;;;-0.15;87.81;98757.64;105644;1281;137589;-75
2022/03/05 02:16:10;;;;;;;46.40;21.20;;;;;;;-0.17;87.53;98756.20;105776;1281;22593;-75
2022/03/05 02:18:37;;;;;;;44.40;20.90;;;;;;;-0.16;87.65;98757.88;105748;1281;22580;-75
2022/03/05 02:21:04;;;;;;;40.30;19.70;;;;;;;-0.13;87.72;98759.38;105907;1281;137480;-75
2022/03/05 02:23:30;;;;;;;42.00;19.80;;;;;;;-0.12;87.57;98757.64;105890;1280;25381;-75
2022/03/05 02:25:59;;;;;;;41.00;19.40;;;;;;;-0.11;87.72;98758.61;105723;1280;137655;-75
2022/03/05 02:28:27;;;;;;;43.20;19.80;;;;;;;-0.13;87.50;98757.00;105913;1280;22650;-75
2022/03/05 02:30:54;;;;;;;42.30;20.60;;;;;;;-0.13;87.55;98760.09;105813;1280;22733;-75
2022/03/05 02:33:20;;;;;;;40.30;19.90;;;;;;;-0.12;87.23;98759.08;105917;1281;138629;-75
2022/03/05 02:35:47;;;;;;;37.50;17.80;;;;;;;-0.12;87.23;98762.77;105898;1281;22582;-75
2022/03/05 02:38:16;;;;;;;40.20;19.10;;;;;;;-0.13;87.18;98766.43;105753;1281;137997;-76
2022/03/05 02:40:43;;;;;;;;;;;;;;;-0.14;87.14;98768.55;105847;1281;22560;-76
2022/03/05 02:43:11;;;;;;;39.80;18.70;;;;;;;-0.18;87.04;98770.03;105854;1280;22576;-75
2022/03/05 02:45:38;;;;;;;43.00;20.10;;;;;;;-0.21;87.17;98767.64;105874;1280;138297;-75
2022/03/05 02:48:06;;;;;;;38.90;17.60;;;;;;;-0.21;87.25;98771.56;106124;1280;22570;-77
2022/03/05 02:50:33;;;;;;;35.50;17.00;;;;;;;-0.23;87.26;98774.27;105890;1281;137561;-75
2022/03/05 02:52:59;;;;;;;38.40;18.90;;;;;;;-0.25;87.03;98774.15;105823;1280;22817;-75
2022/03/05 02:55:26;;;;;;;43.20;19.40;;;;;;;-0.25;87.48;98773.84;105618;1281;22750;-75
2022/03/05 02:57:52;;;;;;;44.60;19.20;;;;;;;-0.24;87.36;98771.24;105626;1281;137526;-75
2022/03/05 03:00:19;;;;;;;37.70;18.80;;;;;;;-0.22;87.57;98779.86;105948;1281;24243;-77
2022/03/05 03:02:45;;;;;;;41.10;19.20;;;;;;;-0.18;87.17;98782.23;105649;1280;138666;-75
2022/03/05 03:05:16;;;;;;;41.10;18.80;;;;;;;-0.16;87.00;98786.81;105844;1281;22574;-75
2022/03/05 03:07:44;;;;;;;39.10;17.50;;;;;;;-0.14;87.11;98788.93;105817;1280;138941;-75
2022/03/05 03:10:12;;;;;;;39.60;18.40;;;;;;;-0.16;86.80;98788.23;105970;1280;22584;-75
2022/03/05 03:12:39;;;;;;;41.20;19.40;;;;;;;-0.20;86.65;98791.10;105964;1281;22562;-75
2022/03/05 03:15:07;;;;;;;40.50;19.10;;;;;;;-0.23;86.54;98789.79;105635;1281;138793;-75
2022/03/05 03:17:40;;;;;;;39.30;18.80;;;;;;;-0.25;86.49;98787.92;105993;1281;25402;-76
2022/03/05 03:20:08;;;;;;;36.30;18.50;;;;;;;-0.26;86.87;98787.72;105737;1281;137831;-75
2022/03/05 03:22:35;;;;;;;36.00;17.70;;;;;;;-0.26;86.76;98784.81;105705;1280;22563;-75
2022/03/05 03:25:01;;;;;;;38.70;17.80;;;;;;;-0.25;87.07;98786.85;105817;1281;30523;-75
2022/03/05 03:27:27;;;;;;;37.30;19.50;;;;;;;-0.23;87.08;98781.63;105809;1280;137511;-75
2022/03/05 03:29:54;;;;;;;35.10;17.50;;;;;;;-0.22;86.79;98781.16;105977;1280;22587;-75
2022/03/05 03:32:20;;;;;;;35.10;17.20;;;;;;;-0.19;86.80;98783.30;105900;1280;139266;-75
2022/03/05 03:34:46;;;;;;;39.10;17.70;;;;;;;-0.16;86.54;98785.02;105803;1281;22661;-75
2022/03/05 03:37:13;;;;;;;37.30;17.10;;;;;;;-0.15;86.68;98782.08;105833;1281;22582;-75
2022/03/05 03:39:39;;;;;;;33.50;16.70;;;;;;;-0.14;86.34;98783.61;105694;1281;137428;-75
2022/03/05 03:42:06;;;;;;;36.10;18.50;;;;;;;-0.16;86.14;98784.14;105791;1282;22615;-75
2022/03/05 03:44:32;;;;;;;37.20;17.30;;;;;;;-0.17;86.23;98784.80;105924;1280;137962;-75
2022/03/05 03:46:59;;;;;;;32.40;16.20;;;;;;;-0.17;85.95;98782.08;105900;1279;26545;-74
2022/03/05 03:49:25;;;;;;;29.90;15.10;;;;;;;-0.19;85.59;98782.80;106005;1280;22719;-75
2022/03/05 03:51:51;;;;;;;32.70;15.70;;;;;;;-0.21;85.85;98785.89;105823;1280;138219;-75
2022/03/05 03:54:17;;;;;;;34.60;16.70;;;;;;;-0.23;85.49;98790.92;105791;1280;25422;-75
2022/03/05 03:56:44;;;;;;;32.00;15.70;;;;;;;-0.25;85.68;98789.86;105920;1281;137701;-75
2022/03/05 03:59:10;;;;;;;32.10;16.10;;;;;;;-0.26;85.79;98795.38;105657;1282;22591;-75
2022/03/05 04:01:36;;;;;;;33.80;16.90;;;;;;;-0.29;85.55;98798.19;105827;1281;24304;-75
2022/03/05 04:04:02;;;;;;;35.80;15.60;;;;;;;-0.32;85.40;98794.02;105713;1280;138088;-74
2022/03/05 04:08:41;;;;;;;31.60;15.40;;;;;;;-0.34;85.20;98791.77;105922;1280;22586;-74
2022/03/05 04:09:15;;;;;;;34.00;16.60;;;;;;;-0.36;85.24;98792.88;105850;1280;137578;-76
2022/03/05 04:11:41;;;;;;;30.30;13.60;;;;;;;-0.38;85.35;98796.81;105785;1280;22594;-75
2022/03/05 04:14:08;;;;;;;27.70;14.10;;;;;;;-0.44;85.23;98795.52;105640;1280;137617;-75
2022/03/05 04:16:34;;;;;;;32.40;16.80;;;;;;;-0.49;85.38;98797.64;105829;1281;24235;-75
2022/03/05 04:19:01;;;;;;;34.40;15.90;;;;;;;-0.54;85.30;98801.05;105957;1281;22564;-75
2022/03/05 04:21:27;;;;;;;27.10;14.10;;;;;;;-0.58;85.25;98802.48;105730;1281;138462;-75
2022/03/05 04:23:53;;;;;;;29.80;15.60;;;;;;;-0.60;85.34;98802.05;105969;1280;24358;-75
2022/03/05 04:26:19;;;;;;;30.20;14.80;;;;;;;-0.63;85.56;98806.62;105741;1279;138028;-75
2022/03/05 04:28:46;;;;;;;31.80;15.50;;;;;;;-0.66;85.31;98808.92;105766;1280;23357;-75
2022/03/05 04:31:12;;;;;;;32.00;14.20;;;;;;;-0.69;85.79;98810.70;105832;1280;22627;-75
2022/03/05 04:33:38;;;;;;;36.00;16.20;;;;;;;-0.71;85.71;98811.79;105931;1280;137662;-75
2022/03/05 04:36:05;;;;;;;32.10;16.40;;;;;;;-0.71;85.90;98815.70;105717;1280;25328;-75
2022/03/05 04:38:33;;;;;;;30.20;15.90;;;;;;;-0.71;86.04;98815.83;105734;1281;137821;-75
2022/03/05 04:40:59;;;;;;;27.20;14.00;;;;;;;-0.70;85.56;98818.10;105890;1281;24205;-75
2022/03/05 04:43:26;;;;;;;31.20;15.50;;;;;;;-0.73;85.68;98817.03;105801;1280;24250;-75
2022/03/05 04:45:53;;;;;;;32.60;14.70;;;;;;;-0.78;85.73;98820.94;105541;1280;137399;-75
2022/03/05 04:48:19;;;;;;;31.10;14.90;;;;;;;-0.84;85.95;98820.98;105879;1280;22551;-75
2022/03/05 04:50:48;;;;;;;34.80;15.10;;;;;;;-0.85;86.11;98823.85;105896;1279;138494;-75
2022/03/05 04:53:15;;;;;;;;;;;;;;;-0.83;86.42;98825.51;106106;1280;22658;-74
2022/03/05 04:55:42;;;;;;;33.30;16.10;;;;;;;-0.80;86.41;98826.27;105746;1280;22588;-75
2022/03/05 04:58:09;;;;;;;32.20;14.90;;;;;;;-0.80;85.94;98825.58;105604;1280;137452;-75
2022/03/05 05:00:37;;;;;;;34.00;15.20;;;;;;;-0.82;86.42;98829.17;105495;1281;22925;-74
2022/03/05 05:03:03;;;;;;;33.60;16.50;;;;;;;-0.82;86.47;98830.58;105083;1281;138293;-75
2022/03/05 05:05:30;;;;;;;32.60;16.10;;;;;;;-0.82;86.21;98828.30;105676;1280;22563;-75
2022/03/05 05:07:56;;;;;;;30.90;15.30;;;;;;;-0.83;86.06;98832.61;105615;1280;138418;-75
2022/03/05 05:10:22;;;;;;;31.70;14.40;;;;;;;-0.83;85.91;98829.34;105669;1280;22509;-75
2022/03/05 05:12:48;;;;;;;29.90;16.10;;;;;;;-0.85;86.14;98838.06;105627;1280;25428;-74
2022/03/05 05:15:15;;;;;;;31.50;15.30;;;;;;;-0.86;86.03;98833.88;105532;1280;137392;-75
2022/03/05 05:17:41;;;;;;;32.50;15.40;;;;;;;-0.85;86.23;98835.18;105351;1281;25449;-74
2022/03/05 05:20:08;;;;;;;39.40;16.50;;;;;;;-0.86;86.20;98838.19;105536;1281;138019;-74
2022/03/05 05:22:35;;;;;;;35.40;16.00;;;;;;;-0.89;85.77;98842.02;105313;1281;25278;-74
2022/03/05 05:25:02;;;;;;;32.20;16.40;;;;;;;-0.90;85.89;98848.26;105537;1280;25579;-75
2022/03/05 05:27:29;;;;;;;33.10;15.50;;;;;;;-0.90;85.84;98852.86;105564;1280;137798;-75
2022/03/05 05:29:55;;;;;;;28.80;14.50;;;;;;;-0.90;85.85;98856.04;105756;1280;24367;-74
2022/03/05 05:32:22;;;;;;;30.70;15.20;;;;;;;-0.89;85.88;98858.27;105687;1280;137962;-75
2022/03/05 05:34:48;;;;;;;32.70;14.50;;;;;;;-0.89;85.86;98857.02;105856;1280;24292;-74
2022/03/05 05:37:15;;;;;;;33.90;15.70;;;;;;;-0.91;85.76;98852.92;105739;1280;22583;-75
2022/03/05 05:39:42;;;;;;;31.70;14.80;;;;;;;-0.89;85.67;98854.31;105720;1281;138136;-75
2022/03/05 05:42:08;;;;;;;29.30;14.70;;;;;;;-0.86;85.73;98856.53;105695;1281;24331;-74
2022/03/05 05:44:34;;;;;;;30.60;15.30;;;;;;;-0.81;85.91;98863.67;105585;1281;138172;-75
2022/03/05 05:47:00;;;;;;;28.30;14.50;;;;;;;-0.78;85.52;98862.08;105696;1280;26590;-74
2022/03/05 05:49:27;;;;;;;31.50;15.50;;;;;;;-0.78;85.21;98862.31;105881;1280;22559;-75
2022/03/05 05:51:53;;;;;;;30.90;14.90;;;;;;;-0.81;85.00;98862.73;105810;1280;137410;-75
2022/03/05 05:54:19;;;;;;;30.90;15.60;;;;;;;-0.81;85.27;98863.84;105792;1280;24099;-75
2022/03/05 05:56:45;;;;;;;27.00;14.60;;;;;;;-0.79;85.09;98865.27;105733;1280;138085;-74
2022/03/05 05:59:12;;;;;;;29.10;13.80;;;;;;;-0.78;85.02;98863.10;105778;1281;24253;-75
2022/03/05 06:01:38;;;;;;;29.80;14.30;;;;;;;-0.76;84.59;98869.73;105821;1281;22658;-75
2022/03/05 06:04:04;;;;;;;31.70;16.10;;;;;;;-0.75;84.75;98875.12;105647;1281;137249;-75
2022/03/05 06:06:31;;;;;;;27.20;13.70;;;;;;;-0.72;84.57;98876.80;105724;1280;22570;-75
2022/03/05 06:08:57;;;;;;;28.20;14.40;;;;;;;-0.71;84.32;98874.16;105696;1280;137841;-75
2022/03/05 06:11:23;;;;;;;28.30;14.80;;;;;;;-0.71;83.95;98875.13;105801;1280;25342;-75
2022/03/05 06:13:50;;;;;;;28.20;14.20;;;;;;;-0.72;83.93;98872.69;105657;1280;138267;-75
2022/03/05 06:16:16;;;;;;;27.80;13.80;;;;;;;-0.73;83.48;98873.52;105823;1279;22561;-75
2022/03/05 06:18:42;;;;;;;26.50;12.50;;;;;;;-0.73;83.59;98874.55;105959;1280;22525;-75
2022/03/05 06:21:09;;;;;;;23.90;13.30;;;;;;;-0.77;83.42;98874.78;105613;1281;137347;-75
2022/03/05 06:23:36;;;;;;;27.10;12.60;;;;;;;-0.79;83.51;98873.64;105712;1281;22551;-74
2022/03/05 06:26:02;;;;;;;25.30;14.90;;;;;;;-0.79;83.60;98878.95;105561;1281;137693;-75
2022/03/05 06:28:28;;;;;;;27.70;13.80;;;;;;;-0.79;83.38;98882.73;105676;1280;25277;-75
2022/03/05 06:30:55;;;;;;;26.10;13.80;;;;;;;-0.80;83.18;98890.41;105909;1280;22570;-75
2022/03/05 06:33:21;;;;;;;27.60;13.30;;;;;;;-0.79;83.10;98892.55;105750;1280;138429;-75
2022/03/05 06:35:47;;;;;;;25.50;13.10;;;;;;;-0.81;82.94;98897.89;105885;1280;25446;-75
2022/03/05 06:38:14;;;;;;;29.90;14.50;;;;;;;-0.80;83.02;98899.92;105587;1283;137952;-75
2022/03/05 06:40:41;;;;;;;27.00;12.60;;;;;;;-0.73;83.28;98902.94;105745;1281;22720;-74
2022/03/05 06:43:07;;;;;;;25.80;13.50;;;;;;;-0.64;83.55;98899.11;105738;1281;24564;-74
2022/03/05 06:45:33;;;;;;;24.30;13.00;;;;;;;-0.53;83.87;98899.42;105748;1281;138518;-74
2022/03/05 06:48:00;;;;;;;27.70;13.30;;;;;;;-0.46;83.31;98900.85;105941;1280;22553;-75
2022/03/05 06:50:26;;;;;;;25.80;13.20;;;;;;;-0.41;83.33;98901.52;105911;1280;137632;-75
2022/03/05 06:52:52;;;;;;;29.30;13.90;;;;;;;-0.38;83.13;98899.73;105775;1279;22586;-75
2022/03/05 06:55:19;;;;;;;28.10;16.00;;;;;;;-0.36;82.61;98902.02;105882;1280;22712;-75
2022/03/05 06:57:45;;;;;;;32.90;15.10;;;;;;;-0.33;82.58;98901.38;105747;1280;137868;-75
2022/03/05 07:00:13;;;;;;;25.80;14.50;;;;;;;-0.30;82.47;98897.34;105893;1281;24420;-75
2022/03/05 07:02:40;;;;;;;26.40;15.30;;;;;;;-0.26;82.24;98903.27;105812;1281;137485;-75
2022/03/05 07:05:09;;;;;;;27.90;14.80;;;;;;;-0.22;82.55;98905.71;105931;1281;22569;-75
2022/03/05 07:07:36;;;;;;;29.20;15.70;;;;;;;-0.19;81.98;98907.89;106006;1280;22746;-73
2022/03/05 07:10:04;;;;;;;26.60;13.90;;;;;;;-0.19;81.77;98910.80;105726;1280;137644;-74
2022/03/05 07:12:31;;;;;;;29.50;14.80;;;;;;;-0.20;81.75;98911.50;105828;1280;24405;-74
2022/03/05 07:14:58;;;;;;;27.30;13.30;;;;;;;-0.17;81.79;98909.67;105720;1280;137888;-74
2022/03/05 07:17:48;;;;;;;23.50;12.80;;;;;;;-0.11;81.68;98912.38;106255;1279;24287;-74
2022/03/05 07:20:14;;;;;;;25.90;12.90;;;;;;;-0.05;81.45;98910.02;105967;1281;137658;-74
2022/03/05 07:22:40;;;;;;;27.60;13.10;;;;;;;-0.00;81.49;98908.55;105839;1281;24350;-74
2022/03/05 07:25:07;;;;;;;23.10;13.20;;;;;;;0.05;80.99;98911.70;106008;1281;22557;-75
2022/03/05 07:27:33;;;;;;;21.80;12.10;;;;;;;0.07;80.70;98910.61;105669;1280;137157;-75
2022/03/05 07:30:00;;;;;;;26.20;12.50;;;;;;;0.07;80.10;98909.73;105889;1280;22589;-75
2022/03/05 07:32:26;;;;;;;23.00;11.30;;;;;;;0.06;79.88;98913.40;105557;1280;137518;-75
2022/03/05 07:34:52;;;;;;;21.10;10.90;;;;;;;0.06;79.64;98913.41;106064;1279;22564;-74
2022/03/05 07:37:18;;;;;;;17.90;10.10;;;;;;;0.05;79.29;98915.35;105894;1279;22580;-75
2022/03/05 07:39:46;;;;;;;14.60;9.00;;;;;;;0.06;78.92;98918.13;105594;1279;137921;-75
2022/03/05 07:42:12;;;;;;;17.20;8.60;;;;;;;0.10;78.72;98918.93;105715;1281;22564;-75
2022/03/05 07:44:38;;;;;;;16.20;9.00;;;;;;;0.17;78.64;98921.19;105530;1281;137138;-74
2022/03/05 07:47:05;;;;;;;15.10;7.50;;;;;;;0.23;78.03;98923.42;105768;1281;22679;-74
2022/03/05 07:49:31;;;;;;;15.70;8.20;;;;;;;0.30;77.42;98923.53;105952;1280;24233;-74
2022/03/05 07:51:58;;;;;;;12.50;6.70;;;;;;;0.37;77.00;98927.69;106122;1280;136995;-74
2022/03/05 07:54:24;;;;;;;11.40;6.40;;;;;;;0.44;76.82;98926.07;106153;1279;22657;-73
2022/03/05 07:56:51;;;;;;;13.60;6.90;;;;;;;0.47;76.18;98930.35;105851;1280;137175;-74
2022/03/05 07:59:17;;;;;;;13.40;7.00;;;;;;;0.51;75.87;98931.15;105731;1280;22996;-74
2022/03/05 08:01:43;;;;;;;9.60;6.10;;;;;;;0.59;75.27;98932.98;105694;1280;22780;-73
2022/03/05 08:04:09;;;;;;;9.00;5.70;;;;;;;0.66;74.26;98932.79;105595;1281;136816;-74
2022/03/05 08:06:37;;;;;;;12.30;6.80;;;;;;;0.73;74.13;98935.05;105673;1281;22583;-76
2022/03/05 08:09:03;;;;;;;11.80;7.50;;;;;;;0.80;74.16;98936.05;105705;1280;137092;-74
2022/03/05 08:11:30;;;;;;;11.40;6.60;;;;;;;0.90;73.94;98938.54;105806;1280;22547;-74
2022/03/05 08:13:56;;;;;;;14.30;6.80;;;;;;;1.01;73.41;98940.73;105810;1280;137478;-74
2022/03/05 08:16:22;;;;;;;15.70;7.60;;;;;;;1.12;73.01;98942.70;105898;1280;24336;-74
2022/03/05 08:18:48;;;;;;;11.80;6.30;;;;;;;1.22;72.56;98941.00;105993;1280;25275;-74
2022/03/05 08:21:14;;;;;;;10.40;6.20;;;;;;;1.29;72.12;98942.91;105588;1281;137520;-74
2022/03/05 08:23:41;;;;;;;9.40;5.70;;;;;;;1.31;70.98;98940.92;105682;1281;23970;-74
2022/03/05 08:26:12;;;;;;;11.50;5.90;;;;;;;1.28;69.84;98939.46;105583;1281;137010;-74
2022/03/05 08:28:43;;;;;;;8.30;5.60;;;;;;;1.24;69.33;98937.20;105718;1280;23132;-74
2022/03/05 08:31:09;;;;;;;9.60;5.70;;;;;;;1.24;68.79;98935.46;105807;1280;23921;-75
2022/03/05 08:33:35;;;;;;;11.10;5.50;;;;;;;1.27;68.56;98936.83;105808;1279;136897;-75
2022/03/05 08:36:01;;;;;;;11.00;5.40;;;;;;;1.33;69.48;98930.70;105823;1279;24241;-75
2022/03/05 08:38:31;;;;;;;8.90;5.30;;;;;;;1.42;69.05;98930.05;105642;1280;137368;-75
2022/03/05 08:40:58;;;;;;;8.10;4.30;;;;;;;1.46;67.39;98928.45;106013;1281;22722;-75
2022/03/05 08:43:25;;;;;;;6.30;4.60;;;;;;;1.46;65.91;98929.55;106501;1280;24843;-75
2022/03/05 08:45:52;;;;;;;6.40;4.90;;;;;;;1.44;64.55;98929.73;106008;1281;137503;-75
2022/03/05 08:48:19;;;;;;;8.90;5.60;;;;;;;1.44;64.42;98930.52;106006;1281;22777;-75
2022/03/05 08:50:46;;;;;;;9.00;4.60;;;;;;;1.49;64.66;98930.09;106233;1280;137369;-75
2022/03/05 08:53:12;;;;;;;8.80;5.00;;;;;;;1.57;64.73;98925.11;106288;1279;24357;-75
2022/03/05 08:55:38;;;;;;;9.70;5.30;;;;;;;1.67;65.88;98933.38;106313;1279;23233;-74
2022/03/05 08:58:05;;;;;;;12.10;6.50;;;;;;;1.83;65.74;98939.80;105629;1279;136775;-74
2022/03/05 09:00:31;;;;;;;9.90;5.50;;;;;;;2.02;66.05;98938.95;105971;1280;25043;-74
2022/03/05 09:02:57;;;;;;;11.10;6.30;;;;;;;2.15;65.00;98943.63;105734;1281;137040;-74
2022/03/05 09:05:23;;;;;;;12.10;6.00;;;;;;;2.18;64.10;98949.25;105711;1281;22548;-74
2022/03/05 09:07:50;;;;;;;10.70;6.40;;;;;;;2.21;65.11;98949.64;105589;1281;137162;-74
2022/03/05 09:10:16;;;;;;;11.00;6.20;;;;;;;2.27;64.43;98952.48;106060;1280;24255;-74
2022/03/05 09:12:43;;;;;;;9.10;5.20;;;;;;;2.27;63.98;98953.52;105823;1280;22805;-77
2022/03/05 09:15:10;;;;;;;7.50;4.90;;;;;;;2.32;64.51;98952.40;105520;1280;316116;-75
2022/03/05 09:17:36;;;;;;;9.40;4.70;;;;;;;2.38;63.88;98955.83;105843;1280;24323;-75
2022/03/05 09:20:04;;;;;;;8.90;3.90;;;;;;;2.38;61.65;98950.45;105784;1280;137225;-75
2022/03/05 09:22:30;;;;;;;6.80;3.60;;;;;;;2.41;60.46;98950.50;105808;1281;22551;-76
2022/03/05 09:24:57;;;;;;;5.90;3.40;;;;;;;2.45;59.52;98951.63;105751;1281;22555;-75
2022/03/05 09:27:23;;;;;;;8.10;3.60;;;;;;;2.48;58.34;98946.59;105638;1279;136953;-75
2022/03/05 09:29:49;;;;;;;7.40;4.30;;;;;;;2.52;58.57;98946.71;105541;1280;25582;-76
2022/03/05 09:32:16;;;;;;;7.00;4.40;;;;;;;2.59;58.80;98949.47;105735;1280;137049;-76
2022/03/05 09:34:42;;;;;;;6.20;3.60;;;;;;;2.62;59.26;98952.43;105743;1280;22842;-75
2022/03/05 09:37:08;;;;;;;7.40;2.50;;;;;;;2.68;57.51;98954.63;105757;1280;24036;-75
2022/03/05 09:39:37;;;;;;;6.10;3.00;;;;;;;2.67;56.50;98954.57;105787;1280;136966;-75
2022/03/05 09:42:06;;;;;;;6.00;3.20;;;;;;;2.65;57.37;98954.08;105834;1279;24377;-75
2022/03/05 09:44:34;;;;;;;6.00;3.20;;;;;;;2.68;57.41;98947.92;105568;1281;137672;-75
2022/03/05 09:47:01;;;;;;;5.80;3.10;;;;;;;2.74;57.29;98954.71;105880;1281;22564;-76
2022/03/05 09:49:29;;;;;;;6.00;2.90;;;;;;;2.78;56.74;98957.60;105720;1281;24327;-76
2022/03/05 09:51:59;;;;;;;7.20;3.30;;;;;;;2.76;56.68;98955.54;105717;1280;137735;-76
2022/03/05 09:54:40;;;;;;;6.20;3.20;;;;;;;2.76;55.92;98954.22;105702;1280;25428;-76
2022/03/05 09:57:11;;;;;;;6.80;3.20;;;;;;;2.77;55.84;98957.17;105625;1280;137446;-76
2022/03/05 09:59:37;;;;;;;5.80;3.20;;;;;;;2.76;55.69;98957.70;105981;1280;22632;-76
2022/03/05 10:02:05;;;;;;;3.90;2.90;;;;;;;2.67;54.18;98958.17;105647;1279;137180;-76
2022/03/05 10:04:32;;;;;;;4.60;2.90;;;;;;;2.50;53.31;98958.75;105860;1281;22573;-76
2022/03/05 10:07:06;;;;;;;5.40;2.50;;;;;;;2.38;54.56;98964.70;105698;1280;22563;-76
2022/03/05 10:09:32;;;;;;;7.50;3.70;;;;;;;2.34;54.39;98966.16;105473;1282;137170;-76
2022/03/05 10:11:58;;;;;;;5.10;3.80;;;;;;;2.41;55.04;98964.42;105697;1280;23045;-77
2022/03/05 10:14:24;;;;;;;6.40;3.30;;;;;;;2.52;54.53;98964.42;105794;1280;137236;-77
2022/03/05 10:17:00;;;;;;;6.10;3.40;;;;;;;2.58;54.80;98959.14;105878;1280;22572;-77
2022/03/05 10:19:27;;;;;;;5.30;2.90;;;;;;;2.74;54.87;98959.65;105644;1280;22552;-77
2022/03/05 10:21:55;;;;;;;5.70;2.70;;;;;;;2.79;53.97;98956.17;105544;1280;136836;-78
2022/03/05 10:24:35;;;;;;;4.10;2.10;;;;;;;2.82;54.03;98961.42;105810;1281;24044;-77
2022/03/05 10:27:01;;;;;;;4.20;2.20;;;;;;;2.70;48.90;98957.84;105588;1281;136913;-78
2022/03/05 10:29:34;;;;;;;4.50;2.70;;;;;;;2.50;49.44;98957.85;105688;1281;25245;-78
2022/03/05 10:32:02;;;;;;;4.40;2.90;;;;;;;2.30;50.67;98961.33;105643;1280;137221;-78
2022/03/05 10:34:48;;;;;;;4.40;3.40;;;;;;;2.13;51.72;98962.91;105934;1280;25405;-78
2022/03/05 10:37:16;;;;;;;6.40;4.20;;;;;;;1.91;54.20;98962.17;105779;1280;22562;-77
2022/03/05 10:39:42;;;;;;;6.40;3.90;;;;;;;1.76;54.63;98963.75;105581;1280;137066;-77
2022/03/05 10:42:38;;;;;;;8.40;4.40;;;;;;;1.65;55.23;98961.42;105507;1280;22551;-77
2022/03/05 10:45:08;;;;;;;7.30;4.20;;;;;;;1.47;54.10;98961.16;105337;1281;137091;-77
2022/03/05 10:47:42;;;;;;;7.80;4.30;;;;;;;1.31;55.29;98963.44;105705;1281;22590;-77
2022/03/05 10:50:21;;;;;;;10.30;5.00;;;;;;;1.21;55.87;98962.29;105635;1281;137366;-78
2022/03/05 10:52:50;;;;;;;9.90;4.80;;;;;;;1.13;57.04;98965.84;105670;1280;22824;-77
2022/03/05 10:55:21;;;;;;;9.50;5.20;;;;;;;1.11;56.71;98959.56;105688;1280;22520;-77
2022/03/05 10:58:09;;;;;;;9.00;4.50;;;;;;;1.13;56.84;98958.33;105660;1280;137127;-77
2022/03/05 11:00:35;;;;;;;6.80;4.10;;;;;;;1.15;56.82;98958.21;105602;1280;22551;-77
2022/03/05 11:03:02;;;;;;;8.20;4.40;;;;;;;1.18;57.30;98956.20;105452;1280;136749;-77
2022/03/05 11:05:29;;;;;;;8.10;4.50;;;;;;;1.22;57.05;98956.95;105723;1281;22588;-77
2022/03/05 11:08:10;;;;;;;7.70;4.30;;;;;;;1.28;57.41;98954.63;105788;1281;136978;-77
2022/03/05 11:10:38;;;;;;;5.80;3.50;;;;;;;1.35;56.77;98954.30;105813;1281;25320;-77
2022/03/05 11:13:04;;;;;;;4.50;2.60;;;;;;;1.37;54.64;98956.41;105775;1280;22559;-76
2022/03/05 11:15:31;;;;;;;4.80;3.20;;;;;;;1.32;52.74;98952.95;105709;1280;136876;-77